Time;durP1;ratioP1;P1;durP2;ratioP2;P2;SDS_P1;SDS_P2;PMS_P1;PMS_P2;Temp;Humidity;BMP_temperature;BMP_pressure;BME280_temperature;BME280_humidity;BME280_pressure;Samples;Min_cycle;Max_cycle;Signal;HPM_P1;HPM_P2
2022/06/13 00:00:48;;;;;;;;;;;;;;;16.74;77.32;101992.56;5072687;28;19980;-32
2022/06/13 00:03:14;;;;;;;;;;;;;;;16.76;77.10;101995.94;5072678;28;19905;-32
2022/06/13 00:05:39;;;;;;;;;;;;;;;16.78;77.19;101993.06;5079602;28;19921;-31
2022/06/13 00:08:04;;;;;;;;;;;;;;;16.76;77.11;101995.94;5072541;28;19932;-31
2022/06/13 00:10:30;;;;;;;;;;;;;;;16.77;77.38;101981.38;5072986;28;19968;-32
2022/06/13 00:12:55;;;;;;;;;;;;;;;16.81;77.41;101985.34;5073617;28;19917;-34
2022/06/13 00:15:20;;;;;;;;;;;;;;;16.81;77.22;101992.69;5072516;28;19909;-31
2022/06/13 00:17:45;;;;;;;;;;;;;;;16.81;77.57;101990.78;5072784;28;19920;-31
2022/06/13 00:20:11;;;;;;;;;;;;;;;16.82;77.55;101997.06;5073012;28;19943;-32
2022/06/13 00:22:36;;;;;;;;;;;;;;;16.81;77.36;101988.06;5072816;28;19920;-32
2022/06/13 00:25:01;;;;;;;;;;;;;;;16.81;77.57;101988.06;5072715;28;19909;-31
2022/06/13 00:27:26;;;;;;;;;;;;;;;16.77;77.09;101986.81;5072814;28;19909;-33
2022/06/13 00:29:52;;;;;;;;;;;;;;;16.75;77.28;101983.41;5073054;28;19924;-32
2022/06/13 00:32:17;;;;;;;;;;;;;;;16.77;77.18;101992.25;5073097;28;19911;-33
2022/06/13 00:34:42;;;;;;;;;;;;;;;16.76;77.06;101985.06;5073471;28;19980;-32
2022/06/13 00:37:08;;;;;;;;;;;;;;;16.72;77.40;101977.50;5073059;28;20008;-32
2022/06/13 00:39:33;;;;;;;;;;;;;;;16.69;77.32;101981.44;5073589;28;19955;-32
2022/06/13 00:41:58;;;;;;;;;;;;;;;16.63;77.10;101979.50;5074650;28;19935;-32
2022/06/13 00:44:25;;;;;;;;;;;;;;;16.57;77.57;101974.84;5077921;28;19959;-32
2022/06/13 00:46:50;;;;;;;;;;;;;;;16.57;77.54;101977.56;5077589;28;19929;-32
2022/06/13 00:49:37;;;;;;;;;;;;;;;16.58;77.30;101976.53;5077247;28;19920;-32
2022/06/13 00:52:16;;;;;;;;;;;;;;;16.60;77.22;101974.47;5077554;28;19912;-34
2022/06/13 00:54:41;;;;;;;;;;;;;;;16.62;77.02;101972.41;5077494;28;19928;-33
2022/06/13 00:57:08;;;;;;;;;;;;;;;16.65;76.86;101970.13;5076017;28;20260;-32
2022/06/13 00:59:33;;;;;;;;;;;;;;;16.71;76.85;101973.09;5077540;28;19964;-33
2022/06/13 01:01:59;;;;;;;;;;;;;;;16.73;76.96;101980.03;5076081;28;19928;-33
2022/06/13 01:04:24;;;;;;;;;;;;;;;16.74;77.18;101976.25;5077001;28;20426;-33
2022/06/13 01:06:50;;;;;;;;;;;;;;;16.75;77.08;101972.53;5077035;28;19956;-33
2022/06/13 01:09:16;;;;;;;;;;;;;;;16.76;77.53;101985.06;5076632;28;20002;-30
2022/06/13 01:11:46;;;;;;;;;;;;;;;16.75;77.45;101977.97;5077136;28;19917;-32
2022/06/13 01:14:23;;;;;;;;;;;;;;;16.74;77.52;101970.00;5076432;28;19911;-32
2022/06/13 01:17:00;;;;;;;;;;;;;;;16.72;77.41;101983.78;5077012;28;19951;-32
2022/06/13 01:19:52;;;;;;;;;;;;;;;16.71;77.47;101979.38;5076425;28;19976;-32
2022/06/13 01:22:36;;;;;;;;;;;;;;;16.70;77.16;101976.88;5075510;28;19921;-33
2022/06/13 01:25:20;;;;;;;;;;;;;;;16.60;76.87;101969.03;5076089;28;19921;-32
2022/06/13 01:28:00;;;;;;;;;;;;;;;16.58;77.40;101962.94;5072460;28;19913;-32
2022/06/13 01:30:26;;;;;;;;;;;;;;;16.55;77.37;101966.88;5076203;28;19921;-33
2022/06/13 01:33:01;;;;;;;;;;;;;;;16.56;78.02;101970.44;5075833;28;19952;-32
2022/06/13 01:35:44;;;;;;;;;;;;;;;16.54;78.04;101969.81;5075051;28;19921;-31
2022/06/13 01:38:10;;;;;;;;;;;;;;;16.55;78.23;101969.59;5075163;28;19988;-32
2022/06/13 01:40:54;;;;;;;;;;;;;;;16.55;77.89;101979.63;5075599;28;19975;-33
2022/06/13 01:43:24;;;;;;;;;;;;;;;16.57;77.95;101981.13;5075228;28;19920;-32
2022/06/13 01:45:52;;;;;;;;;;;;;;;16.51;77.34;101979.19;5074406;28;19917;-31
2022/06/13 01:48:31;;;;;;;;;;;;;;;16.48;77.72;101981.44;5075290;28;19909;-33
2022/06/13 01:51:15;;;;;;;;;;;;;;;16.46;77.61;101978.94;5074131;28;19912;-33
2022/06/13 01:53:59;;;;;;;;;;;;;;;16.46;77.32;101976.22;5074745;28;19909;-34
2022/06/13 01:56:30;;;;;;;;;;;;;;;16.41;76.93;101981.38;5067989;28;19935;-33
2022/06/13 01:58:58;;;;;;;;;;;;;;;16.40;76.99;101979.69;5075405;28;19924;-32
2022/06/13 02:01:23;;;;;;;;;;;;;;;16.38;76.71;101974.47;5075755;28;19971;-33
2022/06/13 02:03:50;;;;;;;;;;;;;;;16.38;76.36;101981.78;5075889;28;19909;-33
2022/06/13 02:06:19;;;;;;;;;;;;;;;16.37;75.81;101980.91;5075486;28;19913;-32
2022/06/13 02:08:50;;;;;;;;;;;;;;;16.33;74.61;101982.34;5075221;28;19917;-33
2022/06/13 02:11:32;;;;;;;;;;;;;;;16.31;71.70;101970.81;5074779;28;19927;-33
2022/06/13 02:14:03;;;;;;;;;;;;;;;16.26;68.22;101972.44;5076329;28;19995;-34
2022/06/13 02:16:34;;;;;;;;;;;;;;;16.27;67.08;101969.50;5060028;28;19992;-34
2022/06/13 02:18:59;;;;;;;;;;;;;;;16.29;67.62;101983.75;5076620;28;19920;-32
2022/06/13 02:21:27;;;;;;;;;;;;;;;16.31;66.97;101980.84;5076870;28;19916;-32
2022/06/13 02:23:53;;;;;;;;;;;;;;;16.31;65.68;101978.97;5075594;28;19934;-32
2022/06/13 02:26:22;;;;;;;;;;;;;;;16.33;63.25;101985.06;5076310;28;19912;-32
2022/06/13 02:28:51;;;;;;;;;;;;;;;16.33;62.36;101976.91;5075099;28;19921;-33
2022/06/13 02:31:17;;;;;;;;;;;;;;;16.32;61.72;101988.78;5076279;28;19947;-32
2022/06/13 02:33:47;;;;;;;;;;;;;;;16.32;60.33;101977.94;5112582;22;19922;-32
2022/06/13 02:36:14;;;;;;;;;;;;;;;16.34;60.47;101984.00;5069463;28;19925;-33
2022/06/13 02:38:42;;;;;;;;;;;;;;;16.35;60.50;101977.56;5062402;28;19916;-34
2022/06/13 02:41:08;;;;;;;;;;;;;;;16.39;59.81;101984.28;5075909;28;19999;-34
2022/06/13 02:43:59;;;;;;;;;;;;;;;16.37;60.14;101990.94;5075186;28;19913;-33
2022/06/13 02:46:51;;;;;;;;;;;;;;;16.37;59.79;101982.78;5056185;28;19960;-33
2022/06/13 02:49:35;;;;;;;;;;;;;;;16.32;60.37;101979.81;5062165;28;19920;-31
2022/06/13 02:52:02;;;;;;;;;;;;;;;16.30;61.28;101980.03;5066089;28;20351;-32
2022/06/13 02:54:36;;;;;;;;;;;;;;;16.23;62.24;101985.38;5074044;28;19924;-31
2022/06/13 02:59:56;;;;;;;;;;;;;;;16.21;63.50;101992.03;5075652;28;19932;-33
2022/06/13 03:02:28;;;;;;;;;;;;;;;16.19;63.97;101994.94;5075151;28;19920;-33
2022/06/13 03:04:57;;;;;;;;;;;;;;;16.21;63.80;101992.03;5074103;28;20141;-33
2022/06/13 03:07:35;;;;;;;;;;;;;;;16.21;63.44;101994.72;5073769;28;19920;-33
2022/06/13 03:10:21;;;;;;;;;;;;;;;16.17;63.60;101991.56;5074784;28;19913;-32
2022/06/13 03:13:00;;;;;;;;;;;;;;;16.14;63.93;101991.09;5075750;28;20134;-32
2022/06/13 03:15:28;;;;;;;;;;;;;;;16.15;63.61;101998.22;5075564;28;19913;-33
2022/06/13 03:17:55;;;;;;;;;;;;;;;16.14;63.65;102001.94;5075402;28;19988;-32
2022/06/13 03:20:38;;;;;;;;;;;;;;;16.11;62.97;102002.34;5075613;28;19920;-33
2022/06/13 03:23:22;;;;;;;;;;;;;;;16.08;62.15;102003.56;5065001;28;19909;-33
2022/06/13 03:25:47;;;;;;;;;;;;;;;16.05;62.31;101998.50;5074058;28;19956;-32
2022/06/13 03:28:21;;;;;;;;;;;;;;;16.02;62.29;102002.44;5075597;28;19920;-33
2022/06/13 03:30:47;;;;;;;;;;;;;;;16.01;62.61;102008.94;5073185;28;19920;-31
2022/06/13 03:35:59;;;;;;;;;;;;;;;16.02;61.83;102010.59;5035875;28;19980;-30
2022/06/13 03:38:31;;;;;;;;;;;;;;;16.02;61.81;102009.75;5033896;28;19925;-30
2022/06/13 03:40:56;;;;;;;;;;;;;;;15.98;61.97;102017.44;5052915;28;19923;-31
2022/06/13 03:43:23;;;;;;;;;;;;;;;15.99;62.14;102021.84;5054229;28;19913;-32
2022/06/13 03:45:50;;;;;;;;;;;;;;;15.98;62.57;102022.00;5052797;28;19924;-32
2022/06/13 03:48:42;;;;;;;;;;;;;;;15.94;62.67;102021.56;5052022;28;19913;-31
2022/06/13 03:51:09;;;;;;;;;;;;;;;15.91;62.92;102021.94;5045516;28;19983;-32
2022/06/13 03:53:39;;;;;;;;;;;;;;;15.92;62.11;102022.78;5053133;28;19981;-31
2022/06/13 03:56:07;;;;;;;;;;;;;;;15.91;61.96;102024.66;5052709;28;19924;-32
2022/06/13 03:58:34;;;;;;;;;;;;;;;15.90;60.02;102032.97;5034178;28;19929;-32
2022/06/13 04:01:02;;;;;;;;;;;;;;;15.88;59.62;102029.63;5034238;28;20188;-31
2022/06/13 04:03:27;;;;;;;;;;;;;;;15.92;60.19;102029.03;5034074;28;19909;-31
2022/06/13 04:06:11;;;;;;;;;;;;;;;15.89;58.83;102026.72;5050709;28;19917;-32
2022/06/13 04:08:36;;;;;;;;;;;;;;;15.92;58.93;102030.94;5034065;28;19913;-31
2022/06/13 04:11:05;;;;;;;;;;;;;;;15.91;59.08;102030.09;5032786;28;20015;-31
2022/06/13 04:13:30;;;;;;;;;;;;;;;15.85;59.27;102030.84;5033793;28;19926;-31
2022/06/13 04:16:07;;;;;;;;;;;;;;;15.90;59.20;102028.38;5040754;28;19957;-33
2022/06/13 04:18:53;;;;;;;;;;;;;;;15.93;59.27;102032.59;5052366;28;19924;-32
2022/06/13 04:21:38;;;;;;;;;;;;;;;15.91;60.46;102040.13;5052711;28;19988;-32
2022/06/13 04:24:06;;;;;;;;;;;;;;;15.94;60.34;102039.72;5052946;28;19920;-34
2022/06/13 04:26:39;;;;;;;;;;;;;;;15.91;60.69;102032.81;5034260;28;19913;-32
2022/06/13 04:29:09;;;;;;;;;;;;;;;15.91;61.38;102043.66;5042020;28;19967;-30
2022/06/13 04:31:34;;;;;;;;;;;;;;;15.95;61.60;102031.38;5038290;28;19977;-32
2022/06/13 04:34:01;;;;;;;;;;;;;;;15.96;62.54;102045.81;5038395;28;19929;-31
2022/06/13 04:36:26;;;;;;;;;;;;;;;15.96;63.21;102043.94;5051139;28;19916;-31
2022/06/13 04:38:52;;;;;;;;;;;;;;;15.86;64.07;102037.97;5033801;28;19906;-30
2022/06/13 04:41:17;;;;;;;;;;;;;;;15.84;64.02;102040.00;5034542;28;19968;-32
2022/06/13 04:43:44;;;;;;;;;;;;;;;15.81;63.30;102048.53;5054034;28;19920;-32
2022/06/13 04:46:11;;;;;;;;;;;;;;;15.77;62.87;102041.78;5049445;28;19925;-32
2022/06/13 04:48:38;;;;;;;;;;;;;;;15.83;62.84;102054.63;5040870;28;19921;-31
2022/06/13 04:51:06;;;;;;;;;;;;;;;15.85;63.40;102046.28;5045030;28;19920;-32
2022/06/13 04:53:35;;;;;;;;;;;;;;;15.85;63.62;102055.28;5035976;28;19972;-33
2022/06/13 04:56:00;;;;;;;;;;;;;;;15.83;64.07;102051.91;5053328;28;19988;-32
2022/06/13 04:58:27;;;;;;;;;;;;;;;15.82;63.19;102057.50;5051133;28;19909;-32
2022/06/13 05:01:02;;;;;;;;;;;;;;;15.85;63.35;102057.13;5055062;28;19952;-33
2022/06/13 05:03:30;;;;;;;;;;;;;;;15.91;62.53;102051.81;5038162;28;19921;-33
2022/06/13 05:05:56;;;;;;;;;;;;;;;15.88;62.93;102060.34;5039624;28;19929;-32
2022/06/13 05:08:26;;;;;;;;;;;;;;;15.89;63.02;102059.28;5047645;28;19924;-32
2022/06/13 05:10:53;;;;;;;;;;;;;;;15.91;62.47;102068.09;5052456;28;19909;-31
2022/06/13 05:13:18;;;;;;;;;;;;;;;15.83;62.32;102073.63;5035218;28;19936;-33
2022/06/13 05:15:43;;;;;;;;;;;;;;;15.84;62.71;102075.31;5038168;28;19925;-32
2022/06/13 05:18:16;;;;;;;;;;;;;;;15.88;63.01;102078.50;5051037;28;19920;-32
2022/06/13 05:20:51;;;;;;;;;;;;;;;15.85;62.75;102079.72;5038636;28;19910;-31
2022/06/13 05:23:34;;;;;;;;;;;;;;;15.82;63.07;102085.50;5043185;28;19913;-32
2022/06/13 05:26:00;;;;;;;;;;;;;;;15.89;63.10;102091.88;5049060;28;19939;-32
2022/06/13 05:28:26;;;;;;;;;;;;;;;15.91;63.19;102095.25;5043913;28;19941;-33
2022/06/13 05:30:55;;;;;;;;;;;;;;;15.91;63.14;102089.81;5049398;28;19921;-33
2022/06/13 05:33:22;;;;;;;;;;;;;;;15.94;63.10;102103.00;5049981;28;19947;-31
2022/06/13 05:35:49;;;;;;;;;;;;;;;16.03;63.69;102109.19;5053863;28;19925;-30
2022/06/13 05:38:15;;;;;;;;;;;;;;;16.05;64.16;102112.56;5050991;28;19913;-32
2022/06/13 05:40:40;;;;;;;;;;;;;;;16.07;63.57;102110.50;5043378;28;19922;-32
2022/06/13 05:43:05;;;;;;;;;;;;;;;16.17;63.00;102104.81;5055957;28;20011;-32
2022/06/13 05:45:31;;;;;;;;;;;;;;;16.22;63.31;102110.53;5046844;28;19926;-31
2022/06/13 05:47:56;;;;;;;;;;;;;;;16.27;64.02;102118.91;5036577;28;20051;-32
2022/06/13 05:50:23;;;;;;;;;;;;;;;16.24;63.73;102108.44;5044448;28;19936;-33
2022/06/13 05:52:48;;;;;;;;;;;;;;;16.31;63.21;102117.53;5052734;28;19913;-34
2022/06/13 05:55:13;;;;;;;;;;;;;;;16.23;63.01;102120.34;5044929;28;19925;-32
2022/06/13 05:57:39;;;;;;;;;;;;;;;16.34;63.21;102124.47;5047489;28;19931;-31
2022/06/13 06:00:05;;;;;;;;;;;;;;;16.42;63.21;102121.63;5038587;28;19926;-32
2022/06/13 06:02:30;;;;;;;;;;;;;;;16.37;63.25;102119.47;5050022;28;19976;-31
2022/06/13 06:04:55;;;;;;;;;;;;;;;16.46;63.73;102126.50;5054133;28;19925;-32
2022/06/13 06:07:21;;;;;;;;;;;;;;;16.51;63.50;102130.50;5053647;28;19936;-33
2022/06/13 06:09:46;;;;;;;;;;;;;;;16.46;63.23;102131.94;5046239;28;19908;-33
2022/06/13 06:12:11;;;;;;;;;;;;;;;16.42;61.78;102136.06;5057169;28;19952;-32
2022/06/13 06:14:36;;;;;;;;;;;;;;;16.36;59.40;102152.28;5044961;28;19926;-30
2022/06/13 06:17:02;;;;;;;;;;;;;;;16.42;58.47;102152.34;5039449;28;19905;-33
2022/06/13 06:19:27;;;;;;;;;;;;;;;16.52;57.51;102151.25;5048129;28;19936;-33
2022/06/13 06:21:52;;;;;;;;;;;;;;;16.64;57.84;102150.56;5037250;28;19933;-32
2022/06/13 06:24:18;;;;;;;;;;;;;;;16.99;58.36;102150.78;5036753;28;19921;-33
2022/06/13 06:26:43;;;;;;;;;;;;;;;17.47;56.38;102155.66;5052564;28;20028;-31
2022/06/13 06:29:08;;;;;;;;;;;;;;;17.68;56.70;102158.34;5036749;28;19932;-30
2022/06/13 06:31:34;;;;;;;;;;;;;;;17.71;56.05;102152.50;5056506;28;19913;-33
2022/06/13 06:33:59;;;;;;;;;;;;;;;17.53;56.76;102152.13;5043192;28;19920;-32
2022/06/13 06:36:24;;;;;;;;;;;;;;;17.64;57.53;102157.06;5037101;28;19909;-32
2022/06/13 06:38:49;;;;;;;;;;;;;;;17.83;56.58;102154.75;5037430;28;19913;-32
2022/06/13 06:41:15;;;;;;;;;;;;;;;18.06;55.93;102149.00;5036885;28;19954;-39
2022/06/13 06:43:40;;;;;;;;;;;;;;;18.35;55.15;102162.41;5037102;28;19972;-32
2022/06/13 06:46:05;;;;;;;;;;;;;;;18.52;54.89;102162.91;5043042;28;19944;-32
2022/06/13 06:48:30;;;;;;;;;;;;;;;18.70;54.68;102161.53;5057129;28;19936;-33
2022/06/13 06:50:56;;;;;;;;;;;;;;;18.73;54.24;102167.41;5039443;28;19927;-30
2022/06/13 06:53:23;;;;;;;;;;;;;;;18.53;54.31;102171.91;5036705;28;19905;-32
2022/06/13 07:01:17;;;;;;;;;;;;;;;18.06;56.51;102181.69;5044270;28;19920;-30
2022/06/13 07:03:42;;;;;;;;;;;;;;;18.53;54.87;102175.47;5046459;28;19944;-32
2022/06/13 07:06:07;;;;;;;;;;;;;;;19.19;53.14;102184.97;5044466;28;19936;-32
2022/06/13 07:08:33;;;;;;;;;;;;;;;20.18;51.34;102176.00;5052848;28;19925;-32
2022/06/13 07:11:53;;;;;;;;;;;;;;;21.33;49.86;102186.25;5047924;28;20172;-33
2022/06/13 07:13:45;;;;;;;;;;;;;;;22.14;44.29;102188.97;5055865;28;19909;-34
2022/06/13 07:16:10;;;;;;;;;;;;;;;21.67;44.84;102195.94;5036210;28;19933;-33
2022/06/13 07:18:36;;;;;;;;;;;;;;;20.62;45.64;102188.09;5035806;28;20525;-32
2022/06/13 07:21:01;;;;;;;;;;;;;;;20.54;47.50;102191.09;5036239;28;19922;-32
2022/06/13 07:23:26;;;;;;;;;;;;;;;21.31;45.92;102202.06;5036537;28;20023;-32
2022/06/13 07:25:51;;;;;;;;;;;;;;;22.09;44.46;102208.00;5036918;28;19930;-33
2022/06/13 07:28:16;;;;;;;;;;;;;;;22.39;43.60;102201.81;5035933;28;19926;-31
2022/06/13 07:30:42;;;;;;;;;;;;;;;22.91;43.17;102206.91;5036426;28;19921;-32
2022/06/13 07:33:07;;;;;;;;;;;;;;;23.80;41.46;102199.72;5052516;28;20040;-32
2022/06/13 07:35:32;;;;;;;;;;;;;;;25.41;37.10;102214.72;5037678;28;19944;-32
2022/06/13 07:38:16;;;;;;;;;;;;;;;25.84;36.28;102224.28;5044810;28;19972;-32
2022/06/13 07:40:41;;;;;;;;;;;;;;;25.53;36.73;102217.41;5049816;28;19988;-33
2022/06/13 07:43:07;;;;;;;;;;;;;;;25.88;36.06;102222.69;5052945;28;19932;-33
2022/06/13 07:45:33;;;;;;;;;;;;;;;26.24;35.15;102226.00;5020682;28;19948;-33
2022/06/13 07:47:59;;;;;;;;;;;;;;;25.81;36.06;102224.78;5033945;28;19940;-34
2022/06/13 07:50:24;;;;;;;;;;;;;;;24.43;37.77;102233.06;5038016;28;19913;-33
2022/06/13 07:52:50;;;;;;;;;;;;;;;23.54;39.17;102230.31;5042169;28;19982;-33
2022/06/13 07:55:16;;;;;;;;;;;;;;;22.35;41.46;102239.00;5044079;28;19921;-32
2022/06/13 07:57:42;;;;;;;;;;;;;;;21.33;44.46;102238.28;5038190;28;19997;-32
2022/06/13 08:00:08;;;;;;;;;;;;;;;21.36;45.29;102232.38;5053669;28;19913;-33
2022/06/13 08:02:33;;;;;;;;;;;;;;;21.78;43.89;102235.50;5053669;28;19936;-32
2022/06/13 08:04:58;;;;;;;;;;;;;;;22.46;43.34;102243.75;5054050;28;19913;-31
2022/06/13 08:07:24;;;;;;;;;;;;;;;23.19;41.22;102248.34;5045259;28;19925;-33
2022/06/13 08:09:49;;;;;;;;;;;;;;;24.36;38.62;102251.63;5036727;28;19914;-32
2022/06/13 08:12:14;;;;;;;;;;;;;;;23.98;39.19;102250.16;5040301;28;19924;-32
2022/06/13 08:14:45;;;;;;;;;;;;;;;23.48;39.90;102256.00;5043008;28;19909;-32
2022/06/13 08:17:10;;;;;;;;;;;;;;;22.44;41.51;102261.50;5055200;28;19909;-33
2022/06/13 08:19:35;;;;;;;;;;;;;;;21.57;43.57;102261.34;5050049;28;19909;-32
2022/06/13 08:22:01;;;;;;;;;;;;;;;21.55;44.11;102258.00;5043713;28;19913;-32
2022/06/13 08:24:26;;;;;;;;;;;;;;;21.11;45.69;102262.41;5055245;28;19936;-33
2022/06/13 08:26:51;;;;;;;;;;;;;;;20.45;46.84;102264.25;5054937;28;19909;-32
2022/06/13 08:29:16;;;;;;;;;;;;;;;19.59;48.57;102273.28;5048701;28;19913;-33
2022/06/13 08:31:42;;;;;;;;;;;;;;;19.16;50.76;102272.72;5053937;28;19956;-33
2022/06/13 08:34:07;;;;;;;;;;;;;;;19.64;51.28;102275.38;5039377;28;19940;-32
2022/06/13 08:36:32;;;;;;;;;;;;;;;20.81;47.18;102274.72;5035963;28;19940;-33
2022/06/13 08:38:58;;;;;;;;;;;;;;;22.07;45.27;102275.94;5035605;28;19920;-32
2022/06/13 08:41:27;;;;;;;;;;;;;;;22.70;43.88;102274.09;5035313;28;19933;-33
2022/06/13 08:43:55;;;;;;;;;;;;;;;22.63;42.41;102276.91;5035175;28;20035;-32
2022/06/13 08:46:33;;;;;;;;;;;;;;;22.03;44.18;102288.41;5043924;28;20059;-33
2022/06/13 08:49:21;;;;;;;;;;;;;;;21.76;44.75;102285.03;5050401;28;19952;-32
2022/06/13 08:51:48;;;;;;;;;;;;;;;21.74;45.00;102289.06;5054605;28;19928;-33
2022/06/13 08:54:22;;;;;;;;;;;;;;;22.13;43.97;102294.22;5052120;28;19993;-32
2022/06/13 08:56:47;;;;;;;;;;;;;;;22.29;44.29;102303.00;5052448;28;19932;-33
2022/06/13 08:59:25;;;;;;;;;;;;;;;21.98;44.08;102304.69;5045970;28;19921;-33
2022/06/13 09:01:54;;;;;;;;;;;;;;;21.66;44.68;102310.16;5040762;28;19968;-34
2022/06/13 09:04:22;;;;;;;;;;;;;;;21.98;44.87;102307.41;5039970;28;20000;-32
2022/06/13 09:06:48;;;;;;;;;;;;;;;22.61;43.03;102302.88;5050031;28;19913;-32
2022/06/13 09:09:31;;;;;;;;;;;;;;;22.44;42.86;102321.84;5039562;28;19917;-32
2022/06/13 09:11:58;;;;;;;;;;;;;;;21.80;44.27;102321.03;5070126;28;19925;-34
2022/06/13 09:14:23;;;;;;;;;;;;;;;21.96;42.57;102325.16;5045476;28;19965;-32
2022/06/13 09:16:54;;;;;;;;;;;;;;;21.79;43.00;102322.13;5057019;28;19925;-33
2022/06/13 09:19:19;;;;;;;;;;;;;;;21.61;43.52;102329.16;5073426;28;19920;-31
2022/06/13 09:21:47;;;;;;;;;;;;;;;21.74;42.53;102330.16;5052234;28;19913;-33
2022/06/13 09:24:14;;;;;;;;;;;;;;;22.35;41.78;102329.50;5038389;28;19928;-34
2022/06/13 09:26:42;;;;;;;;;;;;;;;22.31;42.78;102333.78;5042294;28;19925;-32
2022/06/13 09:29:11;;;;;;;;;;;;;;;21.84;42.58;102331.34;5057716;28;19970;-34
2022/06/13 09:31:47;;;;;;;;;;;;;;;22.04;41.78;102344.94;5057965;28;19922;-32
2022/06/13 09:34:14;;;;;;;;;;;;;;;23.19;38.76;102332.66;5056895;28;19917;-33
2022/06/13 09:36:43;;;;;;;;;;;;;;;23.38;39.37;102328.84;5068557;28;19936;-36
2022/06/13 09:39:09;;;;;;;;;;;;;;;23.13;40.46;102336.34;5057096;28;19901;-32
2022/06/13 09:41:58;;;;;;;;;;;;;;;23.16;39.43;102341.38;5057835;28;20022;-32
2022/06/13 09:44:31;;;;;;;;;;;;;;;24.09;37.20;102342.84;5058029;28;19964;-33
2022/06/13 09:47:02;;;;;;;;;;;;;;;24.51;35.51;102351.06;5054449;28;19936;-32
2022/06/13 09:49:38;;;;;;;;;;;;;;;24.23;35.77;102351.75;5057089;28;19913;-32
2022/06/13 09:52:22;;;;;;;;;;;;;;;24.21;36.54;102349.22;5056177;28;19921;-32
2022/06/13 09:54:50;;;;;;;;;;;;;;;24.63;36.12;102349.16;5057653;28;19909;-31
2022/06/13 09:57:18;;;;;;;;;;;;;;;24.47;35.64;102350.72;5045906;28;19928;-32
2022/06/13 10:00:01;;;;;;;;;;;;;;;24.30;35.16;102350.56;5048825;28;19992;-34
2022/06/13 10:02:44;;;;;;;;;;;;;;;24.73;35.02;102360.41;5039603;28;19936;-32
2022/06/13 10:05:28;;;;;;;;;;;;;;;25.05;33.80;102357.25;5045511;28;19981;-32
2022/06/13 10:08:00;;;;;;;;;;;;;;;25.90;33.25;102368.66;5048996;28;19923;-33
2022/06/13 10:10:28;;;;;;;;;;;;;;;25.74;32.33;102367.50;5045742;28;19959;-32
2022/06/13 10:12:54;;;;;;;;;;;;;;;25.86;32.91;102364.69;5047093;28;19936;-32
2022/06/13 10:15:26;;;;;;;;;;;;;;;26.03;33.58;102363.63;5045557;28;20239;-33
2022/06/13 10:17:58;;;;;;;;;;;;;;;26.06;31.89;102370.59;5050038;28;19996;-33
2022/06/13 10:20:42;;;;;;;;;;;;;;;26.01;32.32;102374.13;5044336;28;19945;-32
2022/06/13 10:23:11;;;;;;;;;;;;;;;25.31;34.92;102374.38;5045794;28;19925;-33
2022/06/13 10:25:37;;;;;;;;;;;;;;;25.49;34.71;102374.19;5044781;28;19924;-34
2022/06/13 10:28:06;;;;;;;;;;;;;;;25.82;31.97;102380.88;5049193;28;19948;-34
2022/06/13 10:30:31;;;;;;;;;;;;;;;26.31;31.06;102377.66;5048042;28;19919;-34
2022/06/13 10:33:09;;;;;;;;;;;;;;;25.76;32.34;102368.09;5055142;28;19917;-33
2022/06/13 10:35:39;;;;;;;;;;;;;;;25.72;33.62;102383.44;5055086;28;19925;-34
2022/06/13 10:38:14;;;;;;;;;;;;;;;25.70;32.24;102377.31;5055437;28;19940;-33
2022/06/13 10:40:40;;;;;;;;;;;;;;;25.71;32.74;102384.53;5056256;28;19980;-33
2022/06/13 10:43:05;;;;;;;;;;;;;;;25.75;33.34;102385.69;5055884;28;19917;-33
2022/06/13 10:45:30;;;;;;;;;;;;;;;26.22;33.09;102380.78;5043114;28;19944;-34
2022/06/13 10:48:13;;;;;;;;;;;;;;;25.89;32.91;102392.63;5050216;28;19920;-33
2022/06/13 10:50:45;;;;;;;;;;;;;;;25.59;34.36;102376.28;5044313;28;19913;-31
2022/06/13 10:53:16;;;;;;;;;;;;;;;24.99;34.66;102383.03;5054890;28;19928;-34
2022/06/13 10:55:41;;;;;;;;;;;;;;;25.38;33.89;102389.69;5053879;28;19925;-34
2022/06/13 10:58:17;;;;;;;;;;;;;;;25.67;33.06;102383.34;5054020;28;19940;-33
2022/06/13 11:01:01;;;;;;;;;;;;;;;26.15;32.65;102385.66;5053231;28;19943;-34
2022/06/13 11:03:27;;;;;;;;;;;;;;;26.23;33.18;102392.69;5051453;28;19917;-33
2022/06/13 11:05:53;;;;;;;;;;;;;;;26.12;31.64;102388.06;5051947;28;19906;-32
2022/06/13 11:08:18;;;;;;;;;;;;;;;25.79;33.65;102390.47;5042179;28;19967;-33
2022/06/13 11:10:51;;;;;;;;;;;;;;;25.48;33.59;102394.56;5048335;28;19913;-34
2022/06/13 11:13:18;;;;;;;;;;;;;;;24.80;35.35;102392.47;5035332;28;19933;-32
2022/06/13 11:24:09;;;;;;;;;;;;;;;24.29;35.85;102397.56;5042662;28;19933;-33
2022/06/13 11:29:22;;;;;;;;;;;;;;;24.50;35.83;102407.19;5049545;28;19952;-33
2022/06/13 11:31:57;;;;;;;;;;;;;;;24.98;36.11;102403.38;5051821;28;19925;-33
2022/06/13 11:34:25;;;;;;;;;;;;;;;25.28;34.51;102407.94;5054966;28;19921;-33
2022/06/13 11:37:09;;;;;;;;;;;;;;;24.87;35.15;102412.47;5056188;28;19928;-32
2022/06/13 11:39:36;;;;;;;;;;;;;;;24.67;34.79;102412.81;5055054;28;19909;-33
2022/06/13 11:42:01;;;;;;;;;;;;;;;25.06;34.68;102399.41;5055148;28;19921;-34
2022/06/13 11:44:26;;;;;;;;;;;;;;;25.26;34.52;102404.56;5053382;28;19925;-32
2022/06/13 11:46:51;;;;;;;;;;;;;;;24.70;35.08;102407.69;5055762;28;19916;-33
2022/06/13 11:49:17;;;;;;;;;;;;;;;24.99;33.33;102405.06;5039535;28;19913;-34
2022/06/13 11:51:49;;;;;;;;;;;;;;;24.94;33.72;102413.19;5036139;28;19910;-34
2022/06/13 11:54:20;;;;;;;;;;;;;;;24.70;32.63;102415.97;5036436;28;19989;-33
2022/06/13 11:56:45;;;;;;;;;;;;;;;24.64;33.95;102418.81;5046437;28;19920;-33
2022/06/13 11:59:14;;;;;;;;;;;;;;;24.61;35.64;102420.13;5047043;28;19922;-34
2022/06/13 12:01:40;;;;;;;;;;;;;;;24.69;35.28;102417.00;5034891;28;19965;-33
2022/06/13 12:04:11;;;;;;;;;;;;;;;24.50;34.96;102430.03;5033560;28;19945;-34
2022/06/13 12:06:40;;;;;;;;;;;;;;;24.25;35.69;102421.09;5034588;28;19914;-33
2022/06/13 12:09:24;;;;;;;;;;;;;;;24.43;36.65;102412.75;5035130;28;19910;-32
2022/06/13 12:12:00;;;;;;;;;;;;;;;24.60;35.01;102418.47;5034923;28;19909;-33
2022/06/13 12:14:25;;;;;;;;;;;;;;;24.46;34.52;102428.00;5049224;28;19909;-33
2022/06/13 12:16:56;;;;;;;;;;;;;;;24.19;36.63;102419.28;5051495;28;19988;-33
2022/06/13 12:19:26;;;;;;;;;;;;;;;24.12;36.75;102427.66;5044752;28;19940;-34
2022/06/13 12:21:54;;;;;;;;;;;;;;;24.49;36.40;102422.03;5042195;28;19917;-33
2022/06/13 12:24:26;;;;;;;;;;;;;;;24.81;34.42;102432.72;5040388;28;19925;-32
2022/06/13 12:26:53;;;;;;;;;;;;;;;24.26;35.16;102442.06;5034176;28;19929;-34
2022/06/13 12:29:21;;;;;;;;;;;;;;;23.66;36.13;102434.59;5037011;28;19952;-33
2022/06/13 12:31:52;;;;;;;;;;;;;;;24.03;37.02;102434.56;5039762;28;19948;-32
2022/06/13 12:34:30;;;;;;;;;;;;;;;24.24;37.53;102435.94;5042399;28;19914;-33
2022/06/13 12:37:08;;;;;;;;;;;;;;;24.58;35.53;102431.63;5037503;28;19935;-32
2022/06/13 12:39:39;;;;;;;;;;;;;;;24.20;36.03;102434.75;5054827;28;19947;-33
2022/06/13 12:42:04;;;;;;;;;;;;;;;23.92;36.50;102438.94;5055804;28;19956;-33
2022/06/13 12:44:32;;;;;;;;;;;;;;;24.07;36.03;102435.78;5050506;28;19924;-32
2022/06/13 12:47:24;;;;;;;;;;;;;;;24.24;36.50;102436.78;5051332;28;19981;-33
2022/06/13 12:50:07;;;;;;;;;;;;;;;24.17;37.03;102436.06;5057502;28;19988;-33
2022/06/13 12:52:56;;;;;;;;;;;;;;;24.43;35.14;102433.94;5038120;28;19957;-32
2022/06/13 12:55:28;;;;;;;;;;;;;;;24.42;36.26;102437.78;5074146;28;19936;-32
2022/06/13 12:58:22;;;;;;;;;;;;;;;24.61;35.04;102436.63;5058033;28;19935;-33
2022/06/13 13:00:47;;;;;;;;;;;;;;;24.88;33.65;102441.69;5064509;28;19913;-33
2022/06/13 13:03:22;;;;;;;;;;;;;;;24.55;33.80;102440.34;5046211;28;19965;-32
2022/06/13 13:06:04;;;;;;;;;;;;;;;23.82;36.60;102433.97;5044227;28;19980;-32
2022/06/13 13:08:37;;;;;;;;;;;;;;;23.95;35.44;102434.88;5038465;28;19910;-34
2022/06/13 13:11:11;;;;;;;;;;;;;;;24.31;35.37;102436.69;5038735;28;19936;-32